• Join FlightAware (Why Join?)
  • Login
  • US Flag 
04:21PM EDT


 

Airport Tracker/Info


-or-


 

Live Flight TrackerFlight Track Log ✈ RPA3321 ✈ 23-May-2013 ✈ KALB - KDCA

Flight Track Log - Related Links

Times and Time Zones

All times are in EDT time to prevent confusion due to time zone crossing. See the RPA3321 flight status page for this flight to view local times or setup timezone preferences in your user account.

Time Position Orientation Groundspeed Altitude Reporting Facility
EDT Latitude Longitude Course Direction KTS MPH feet Rate Location/Type
05:40AM 42.7319 -73.8081 172° South 142 163 1,500  Level Boston Center
05:41AM 42.7128 -73.8389 230° Southwest 189 217 2,500 2,280 Climbing Boston Center
05:42AM 42.4997 -74.0233 171° South  Level Estimated
05:42AM 42.7658 -73.9278 309° West 242 278 6,500  Level Boston Center
05:43AM 42.4165 -74.0967 180° South  Level Estimated
05:43AM 42.7583 -74.0094 263° West 243 280 9,700  Level Boston Center
05:44AM 42.3333 -74.1698 172° South  Level Estimated
05:44AM 42.6794 -73.9878 169° South 143 165 12,500  Level Boston Center
05:45AM 42.2500 -74.2428 172° South  Level Estimated
05:45AM 42.5864 -73.9458 162° South 218 251 15,300  Level Boston Center
05:46AM 42.4950 -73.9072 163° South 330 380 18,100 2,520 Climbing Boston Center
05:47AM 42.4142 -73.8742 163° South 335 386 20,400 2,280 Climbing Boston Center
05:48AM 42.3189 -73.8356 163° South 341 392 22,700 2,100 Climbing Boston Center
05:49AM 42.2236 -73.7942 162° South 352 405 24,600 1,620 Climbing Boston Center
05:50AM 42.1197 -73.7528 164° South 368 423 26,000 660 Climbing Boston Center
05:51AM 42.0094 -73.7450 177° South 390 449 26,000  Level Boston Center
05:52AM 41.8967 -73.7539 183° South 401 461 26,000  Level Boston Center
05:55AM 41.6464 -73.7664 182° South 405 466 26,000  Level New York Center
05:56AM 41.5253 -73.7750 183° South 399 459 26,000  Level New York Center
05:57AM 41.4128 -73.7808 182° South 406 467 26,000  Level New York Center
05:58AM 41.3000 -73.7897 183° South 406 467 26,000  Level New York Center
05:59AM 41.2025 -73.8625 209° Southwest 387 445 26,000  Level New York Center
06:00AM 41.1225 -73.9661 224° Southwest 392 451 26,000  Level New York Center
06:01AM 41.0447 -74.0725 226° Southwest 398 458 26,000  Level New York Center
06:02AM 40.9644 -74.1786 225° Southwest 398 458 26,000  Level New York Center
06:03AM 40.8825 -74.2814 223° Southwest 410 472 26,000  Level New York Center
06:04AM 40.8061 -74.3925 228° Southwest 410 472 26,000  Level New York Center
06:05AM 40.7319 -74.5008 228° Southwest 410 472 26,000  Level New York Center
06:06AM 40.6594 -74.6119 229° Southwest 410 472 26,000  Level New York Center
06:07AM 40.5831 -74.7197 227° Southwest 410 472 26,000  Level New York Center
06:08AM 40.5064 -74.8297 228° Southwest 404 465 26,000  Level New York Center
06:09AM 40.4339 -74.9375 229° Southwest 404 465 26,000  Level New York Center
06:10AM 40.3592 -75.0444 228° Southwest 404 465 26,000  Level New York Center
06:11AM 40.2908 -75.1464 229° Southwest 404 465 26,000  Level New York Center
06:12AM 40.2158 -75.2531 227° Southwest 404 465 26,000 -540 Level New York Center
06:13AM 40.1431 -75.3597 228° Southwest 399 459 25,000 -1,620 Descending New York Center
06:14AM 40.0744 -75.4583 228° Southwest 394 453 22,900 -1,560 Descending New York Center
06:15AM 40.0064 -75.5486 225° Southwest 379 436 22,000 -600 Descending New York Center
06:16AM 39.9419 -75.6417 228° Southwest 356 410 21,700 -840 Descending New York Center
06:17AM 39.8819 -75.7322 229° Southwest 350 403 20,400 -1,380 Descending New York Center
06:18AM 39.8172 -75.8358 231° Southwest 345 397 19,000 -1,320 Descending New York Center
06:19AM 39.7167 -76.0000 232° Southwest 319 367 16,900 -1,140 Descending Potomac TRACON
06:20AM 39.6667 -76.0667 226° Southwest 319 367 16,000 -1,020 Descending Potomac TRACON
06:21AM 39.6000 -76.1667 229° Southwest 309 356 14,900 -1,020 Descending Potomac TRACON
06:22AM 39.5500 -76.2500 232° Southwest 306 352 14,000 -1,020 Descending Potomac TRACON
06:23AM 39.5000 -76.3333 232° Southwest 304 350 13,000 -1,020 Descending Potomac TRACON
06:24AM 39.4500 -76.4167 232° Southwest 302 348 12,100 -600 Descending Potomac TRACON
06:25AM 39.4000 -76.4667 218° Southwest 301 346 12,000 -60 Descending Potomac TRACON
06:26AM 39.3333 -76.5167 210° Southwest 298 343 12,000  Level Potomac TRACON
06:27AM 39.2667 -76.5833 218° Southwest 298 343 12,000 -900 Level Potomac TRACON
06:28AM 39.1833 -76.6500 212° Southwest 300 345 10,300 -1,020 Descending Potomac TRACON
06:29AM 39.1333 -76.7167 226° Southwest 302 348 10,000 -480 Descending Potomac TRACON
06:30AM 39.1000 -76.8167 247° West 279 321 9,300 -960 Descending Potomac TRACON
06:31AM 39.0833 -76.9000 256° West 270 311 8,100 -1,620 Descending Potomac TRACON
06:32AM 39.0500 -77.0000 247° West 262 302 6,300 -1,800 Descending Potomac TRACON
06:33AM 39.0333 -77.0667 252° West 252 290 4,700 -1,620 Descending Potomac TRACON
06:34AM 39.0167 -77.1333 252° West 241 277 3,400 -1,260 Descending Potomac TRACON
06:35AM 38.9667 -77.1500 195° South 204 235 2,500 -1,020 Descending Potomac TRACON